sensor_id;sensor_type;location;lat;lon;timestamp;pressure;altitude;pressure_sealevel;temperature;humidity
20145;BME280;10233;50.814;6.590;2022-08-21T00:00:39;100356.09;;;16.48;100.00
20145;BME280;10233;50.814;6.590;2022-08-21T00:01:40;100346.53;;;16.29;100.00
20145;BME280;10233;50.814;6.590;2022-08-21T00:03:02;100360.19;;;16.04;100.00
20145;BME280;10233;50.814;6.590;2022-08-21T00:04:05;100353.31;;;15.97;100.00
20145;BME280;10233;50.814;6.590;2022-08-21T00:05:07;100357.78;;;15.91;100.00
20145;BME280;10233;50.814;6.590;2022-08-21T00:06:07;100351.13;;;15.82;100.00
20145;BME280;10233;50.814;6.590;2022-08-21T00:07:08;100351.91;;;15.48;100.00
20145;BME280;10233;50.814;6.590;2022-08-21T00:08:09;100347.81;;;15.34;100.00
20145;BME280;10233;50.814;6.590;2022-08-21T00:09:10;100355.78;;;15.23;100.00
20145;BME280;10233;50.814;6.590;2022-08-21T00:10:11;100357.66;;;15.22;100.00
20145;BME280;10233;50.814;6.590;2022-08-21T00:11:13;100354.50;;;15.25;100.00
20145;BME280;10233;50.814;6.590;2022-08-21T00:12:13;100354.25;;;15.15;100.00
20145;BME280;10233;50.814;6.590;2022-08-21T00:13:14;100357.28;;;15.07;100.00
20145;BME280;10233;50.814;6.590;2022-08-21T00:14:16;100352.66;;;14.96;100.00
20145;BME280;10233;50.814;6.590;2022-08-21T00:15:20;100355.13;;;14.98;100.00
20145;BME280;10233;50.814;6.590;2022-08-21T00:16:21;100348.97;;;14.97;100.00
20145;BME280;10233;50.814;6.590;2022-08-21T00:17:22;100349.06;;;14.91;100.00
20145;BME280;10233;50.814;6.590;2022-08-21T00:18:22;100352.00;;;15.01;100.00
20145;BME280;10233;50.814;6.590;2022-08-21T00:19:23;100354.59;;;15.07;100.00
20145;BME280;10233;50.814;6.590;2022-08-21T00:20:25;100343.53;;;15.15;100.00
20145;BME280;10233;50.814;6.590;2022-08-21T00:21:26;100344.09;;;15.06;100.00
20145;BME280;10233;50.814;6.590;2022-08-21T00:22:26;100348.16;;;14.97;100.00
20145;BME280;10233;50.814;6.590;2022-08-21T00:23:27;100346.03;;;14.99;100.00
20145;BME280;10233;50.814;6.590;2022-08-21T00:24:27;100348.72;;;14.99;100.00
20145;BME280;10233;50.814;6.590;2022-08-21T00:25:28;100348.63;;;15.05;100.00
20145;BME280;10233;50.814;6.590;2022-08-21T00:26:28;100350.72;;;15.03;100.00
20145;BME280;10233;50.814;6.590;2022-08-21T00:27:29;100352.81;;;15.01;100.00
20145;BME280;10233;50.814;6.590;2022-08-21T00:28:30;100348.41;;;15.07;100.00
20145;BME280;10233;50.814;6.590;2022-08-21T00:29:31;100352.84;;;15.13;100.00
20145;BME280;10233;50.814;6.590;2022-08-21T00:30:32;100351.44;;;15.10;100.00
20145;BME280;10233;50.814;6.590;2022-08-21T00:31:32;100350.00;;;14.96;100.00
20145;BME280;10233;50.814;6.590;2022-08-21T00:32:36;100351.47;;;14.92;100.00
20145;BME280;10233;50.814;6.590;2022-08-21T00:33:37;100349.72;;;14.86;100.00
20145;BME280;10233;50.814;6.590;2022-08-21T00:34:37;100346.91;;;14.81;100.00
20145;BME280;10233;50.814;6.590;2022-08-21T00:35:40;100348.09;;;14.85;100.00
20145;BME280;10233;50.814;6.590;2022-08-21T00:36:41;100341.56;;;14.81;100.00
20145;BME280;10233;50.814;6.590;2022-08-21T00:37:42;100343.28;;;14.76;100.00
20145;BME280;10233;50.814;6.590;2022-08-21T00:38:43;100340.84;;;14.74;100.00
20145;BME280;10233;50.814;6.590;2022-08-21T00:39:44;100339.66;;;14.70;100.00
20145;BME280;10233;50.814;6.590;2022-08-21T00:40:50;100344.94;;;14.77;100.00
20145;BME280;10233;50.814;6.590;2022-08-21T00:41:51;100342.38;;;14.82;100.00
20145;BME280;10233;50.814;6.590;2022-08-21T00:42:51;100347.66;;;14.88;100.00
20145;BME280;10233;50.814;6.590;2022-08-21T00:43:52;100342.44;;;14.93;100.00
20145;BME280;10233;50.814;6.590;2022-08-21T00:44:54;100341.38;;;14.94;100.00
20145;BME280;10233;50.814;6.590;2022-08-21T00:45:56;100339.66;;;15.00;100.00
20145;BME280;10233;50.814;6.590;2022-08-21T00:46:56;100345.28;;;14.80;100.00
20145;BME280;10233;50.814;6.590;2022-08-21T00:47:57;100332.47;;;14.82;100.00
20145;BME280;10233;50.814;6.590;2022-08-21T00:48:58;100338.44;;;14.84;100.00
20145;BME280;10233;50.814;6.590;2022-08-21T00:49:58;100332.59;;;14.87;100.00
20145;BME280;10233;50.814;6.590;2022-08-21T00:51:15;100330.84;;;14.81;100.00
20145;BME280;10233;50.814;6.590;2022-08-21T00:52:22;100338.16;;;14.74;100.00
20145;BME280;10233;50.814;6.590;2022-08-21T00:53:25;100343.97;;;14.71;100.00
20145;BME280;10233;50.814;6.590;2022-08-21T00:54:28;100338.75;;;14.76;100.00
20145;BME280;10233;50.814;6.590;2022-08-21T00:55:30;100335.00;;;14.77;100.00
20145;BME280;10233;50.814;6.590;2022-08-21T00:56:31;100332.66;;;14.69;100.00
20145;BME280;10233;50.814;6.590;2022-08-21T00:57:36;100325.56;;;14.63;100.00
20145;BME280;10233;50.814;6.590;2022-08-21T00:58:39;100327.22;;;14.76;100.00
20145;BME280;10233;50.814;6.590;2022-08-21T00:59:45;100326.13;;;14.65;100.00
20145;BME280;10233;50.814;6.590;2022-08-21T01:00:48;100330.91;;;14.63;100.00
20145;BME280;10233;50.814;6.590;2022-08-21T01:01:49;100325.72;;;14.50;100.00
20145;BME280;10233;50.814;6.590;2022-08-21T01:02:50;100328.47;;;14.44;100.00
20145;BME280;10233;50.814;6.590;2022-08-21T01:03:51;100321.16;;;14.51;100.00
20145;BME280;10233;50.814;6.590;2022-08-21T01:04:51;100327.47;;;14.56;100.00
20145;BME280;10233;50.814;6.590;2022-08-21T01:05:53;100323.75;;;14.57;100.00
20145;BME280;10233;50.814;6.590;2022-08-21T01:06:54;100333.97;;;14.49;100.00
20145;BME280;10233;50.814;6.590;2022-08-21T01:07:55;100332.19;;;14.43;100.00
20145;BME280;10233;50.814;6.590;2022-08-21T01:08:57;100329.03;;;14.46;100.00
20145;BME280;10233;50.814;6.590;2022-08-21T01:09:58;100329.28;;;14.44;100.00
20145;BME280;10233;50.814;6.590;2022-08-21T01:10:59;100326.63;;;14.44;100.00
20145;BME280;10233;50.814;6.590;2022-08-21T01:12:00;100327.63;;;14.43;100.00
20145;BME280;10233;50.814;6.590;2022-08-21T01:13:01;100328.47;;;14.44;100.00
20145;BME280;10233;50.814;6.590;2022-08-21T01:14:02;100326.34;;;14.34;100.00
20145;BME280;10233;50.814;6.590;2022-08-21T01:15:04;100324.75;;;14.45;100.00
20145;BME280;10233;50.814;6.590;2022-08-21T01:16:09;100329.00;;;14.34;100.00
20145;BME280;10233;50.814;6.590;2022-08-21T01:17:11;100333.97;;;14.31;100.00
20145;BME280;10233;50.814;6.590;2022-08-21T01:18:15;100328.53;;;14.37;100.00
20145;BME280;10233;50.814;6.590;2022-08-21T01:19:16;100331.44;;;14.36;100.00
20145;BME280;10233;50.814;6.590;2022-08-21T01:20:17;100332.25;;;14.36;100.00
20145;BME280;10233;50.814;6.590;2022-08-21T01:21:21;100322.81;;;14.34;100.00
20145;BME280;10233;50.814;6.590;2022-08-21T01:22:22;100320.50;;;14.37;100.00
20145;BME280;10233;50.814;6.590;2022-08-21T01:23:23;100328.41;;;14.32;100.00
20145;BME280;10233;50.814;6.590;2022-08-21T01:24:23;100337.03;;;14.34;100.00
20145;BME280;10233;50.814;6.590;2022-08-21T01:25:24;100328.25;;;14.27;100.00
20145;BME280;10233;50.814;6.590;2022-08-21T01:26:28;100330.78;;;14.22;100.00
20145;BME280;10233;50.814;6.590;2022-08-21T01:27:29;100328.97;;;14.16;100.00
20145;BME280;10233;50.814;6.590;2022-08-21T01:28:34;100332.88;;;14.20;100.00
20145;BME280;10233;50.814;6.590;2022-08-21T01:29:45;100332.66;;;14.22;100.00
20145;BME280;10233;50.814;6.590;2022-08-21T01:30:46;100327.53;;;14.20;100.00
20145;BME280;10233;50.814;6.590;2022-08-21T01:31:48;100334.28;;;14.23;100.00
20145;BME280;10233;50.814;6.590;2022-08-21T01:32:49;100327.06;;;14.23;100.00
20145;BME280;10233;50.814;6.590;2022-08-21T01:33:51;100325.78;;;14.26;100.00
20145;BME280;10233;50.814;6.590;2022-08-21T01:34:52;100333.66;;;14.39;100.00
20145;BME280;10233;50.814;6.590;2022-08-21T01:35:52;100331.34;;;14.42;100.00
20145;BME280;10233;50.814;6.590;2022-08-21T01:36:53;100337.19;;;14.39;100.00
20145;BME280;10233;50.814;6.590;2022-08-21T01:37:53;100330.56;;;14.42;100.00
20145;BME280;10233;50.814;6.590;2022-08-21T01:38:55;100336.34;;;14.39;100.00
20145;BME280;10233;50.814;6.590;2022-08-21T01:39:55;100331.22;;;14.37;100.00
20145;BME280;10233;50.814;6.590;2022-08-21T01:40:56;100334.78;;;14.31;100.00
20145;BME280;10233;50.814;6.590;2022-08-21T01:41:57;100333.03;;;14.25;100.00
20145;BME280;10233;50.814;6.590;2022-08-21T01:42:57;100330.22;;;14.14;100.00
20145;BME280;10233;50.814;6.590;2022-08-21T01:43:58;100328.22;;;14.09;100.00
20145;BME280;10233;50.814;6.590;2022-08-21T01:44:58;100338.53;;;14.06;100.00
20145;BME280;10233;50.814;6.590;2022-08-21T01:45:59;100329.94;;;14.04;100.00
20145;BME280;10233;50.814;6.590;2022-08-21T01:47:06;100327.03;;;14.05;100.00
20145;BME280;10233;50.814;6.590;2022-08-21T01:48:07;100328.94;;;13.98;100.00
20145;BME280;10233;50.814;6.590;2022-08-21T01:49:08;100325.91;;;13.95;100.00
20145;BME280;10233;50.814;6.590;2022-08-21T01:50:13;100324.88;;;13.96;100.00
20145;BME280;10233;50.814;6.590;2022-08-21T01:51:14;100319.88;;;13.99;100.00
20145;BME280;10233;50.814;6.590;2022-08-21T01:52:14;100327.38;;;13.91;100.00
20145;BME280;10233;50.814;6.590;2022-08-21T01:53:15;100327.38;;;13.91;100.00
20145;BME280;10233;50.814;6.590;2022-08-21T01:54:16;100327.75;;;13.94;100.00
20145;BME280;10233;50.814;6.590;2022-08-21T01:55:17;100317.75;;;14.08;100.00
20145;BME280;10233;50.814;6.590;2022-08-21T01:56:19;100319.03;;;14.05;100.00
20145;BME280;10233;50.814;6.590;2022-08-21T01:57:19;100318.25;;;13.98;100.00
20145;BME280;10233;50.814;6.590;2022-08-21T01:58:20;100319.66;;;14.01;100.00
20145;BME280;10233;50.814;6.590;2022-08-21T01:59:22;100321.31;;;13.84;100.00
20145;BME280;10233;50.814;6.590;2022-08-21T02:00:23;100321.53;;;13.82;100.00
20145;BME280;10233;50.814;6.590;2022-08-21T02:01:24;100316.03;;;13.77;100.00
20145;BME280;10233;50.814;6.590;2022-08-21T02:02:24;100325.22;;;13.81;100.00
20145;BME280;10233;50.814;6.590;2022-08-21T02:03:25;100322.63;;;13.75;100.00
20145;BME280;10233;50.814;6.590;2022-08-21T02:04:25;100320.69;;;13.64;100.00
20145;BME280;10233;50.814;6.590;2022-08-21T02:05:26;100320.28;;;13.60;100.00
20145;BME280;10233;50.814;6.590;2022-08-21T02:06:27;100320.28;;;13.60;100.00
20145;BME280;10233;50.814;6.590;2022-08-21T02:07:27;100322.56;;;13.57;100.00
20145;BME280;10233;50.814;6.590;2022-08-21T02:08:28;100320.28;;;13.60;100.00
20145;BME280;10233;50.814;6.590;2022-08-21T02:09:29;100325.91;;;13.52;100.00
20145;BME280;10233;50.814;6.590;2022-08-21T02:10:31;100322.78;;;13.55;100.00
20145;BME280;10233;50.814;6.590;2022-08-21T02:11:32;100322.31;;;13.40;100.00
20145;BME280;10233;50.814;6.590;2022-08-21T02:12:33;100322.75;;;13.37;100.00
20145;BME280;10233;50.814;6.590;2022-08-21T02:13:33;100326.22;;;13.38;100.00
20145;BME280;10233;50.814;6.590;2022-08-21T02:14:34;100326.44;;;13.36;100.00
20145;BME280;10233;50.814;6.590;2022-08-21T02:15:35;100319.69;;;13.34;100.00
20145;BME280;10233;50.814;6.590;2022-08-21T02:16:37;100315.66;;;13.49;100.00
20145;BME280;10233;50.814;6.590;2022-08-21T02:17:43;100321.66;;;13.45;100.00
20145;BME280;10233;50.814;6.590;2022-08-21T02:18:44;100323.09;;;13.47;100.00
20145;BME280;10233;50.814;6.590;2022-08-21T02:19:45;100317.19;;;13.63;100.00
20145;BME280;10233;50.814;6.590;2022-08-21T02:20:47;100314.50;;;13.63;100.00
20145;BME280;10233;50.814;6.590;2022-08-21T02:21:48;100318.69;;;13.53;100.00
20145;BME280;10233;50.814;6.590;2022-08-21T02:22:49;100321.16;;;13.54;100.00
20145;BME280;10233;50.814;6.590;2022-08-21T02:23:49;100317.91;;;13.52;100.00
20145;BME280;10233;50.814;6.590;2022-08-21T02:24:50;100321.28;;;13.41;100.00
20145;BME280;10233;50.814;6.590;2022-08-21T02:25:50;100316.38;;;13.38;100.00
20145;BME280;10233;50.814;6.590;2022-08-21T02:26:51;100320.84;;;13.44;100.00
20145;BME280;10233;50.814;6.590;2022-08-21T02:27:51;100320.13;;;13.31;100.00
20145;BME280;10233;50.814;6.590;2022-08-21T02:29:11;100319.81;;;13.21;100.00
20145;BME280;10233;50.814;6.590;2022-08-21T02:30:18;100326.81;;;13.15;100.00
20145;BME280;10233;50.814;6.590;2022-08-21T02:31:20;100312.50;;;13.10;100.00
20145;BME280;10233;50.814;6.590;2022-08-21T02:32:20;100313.47;;;13.15;100.00
20145;BME280;10233;50.814;6.590;2022-08-21T02:33:21;100307.41;;;13.26;100.00
20145;BME280;10233;50.814;6.590;2022-08-21T02:34:22;100312.38;;;13.23;100.00
20145;BME280;10233;50.814;6.590;2022-08-21T02:35:23;100309.72;;;13.23;100.00
20145;BME280;10233;50.814;6.590;2022-08-21T02:36:25;100316.31;;;13.20;100.00
20145;BME280;10233;50.814;6.590;2022-08-21T02:37:25;100312.53;;;13.28;100.00
20145;BME280;10233;50.814;6.590;2022-08-21T02:38:32;100315.53;;;13.38;100.00
20145;BME280;10233;50.814;6.590;2022-08-21T02:39:34;100311.16;;;13.50;100.00
20145;BME280;10233;50.814;6.590;2022-08-21T02:40:37;100307.06;;;13.47;100.00
20145;BME280;10233;50.814;6.590;2022-08-21T02:41:38;100317.56;;;13.42;100.00
20145;BME280;10233;50.814;6.590;2022-08-21T02:42:38;100314.28;;;13.40;100.00
20145;BME280;10233;50.814;6.590;2022-08-21T02:43:40;100320.84;;;13.44;100.00
20145;BME280;10233;50.814;6.590;2022-08-21T02:44:41;100318.78;;;13.46;100.00
20145;BME280;10233;50.814;6.590;2022-08-21T02:45:42;100316.53;;;13.43;100.00
20145;BME280;10233;50.814;6.590;2022-08-21T02:46:42;100314.63;;;13.50;100.00
20145;BME280;10233;50.814;6.590;2022-08-21T02:47:54;100318.69;;;13.53;100.00
20145;BME280;10233;50.814;6.590;2022-08-21T02:48:55;100310.94;;;13.51;100.00
20145;BME280;10233;50.814;6.590;2022-08-21T02:49:55;100317.44;;;13.55;100.00
20145;BME280;10233;50.814;6.590;2022-08-21T02:51:17;100312.88;;;13.62;100.00
20145;BME280;10233;50.814;6.590;2022-08-21T02:52:18;100316.19;;;13.58;100.00
20145;BME280;10233;50.814;6.590;2022-08-21T02:53:19;100315.59;;;13.56;100.00
20145;BME280;10233;50.814;6.590;2022-08-21T02:54:20;100315.03;;;13.54;100.00
20145;BME280;10233;50.814;6.590;2022-08-21T02:55:22;100313.53;;;13.58;100.00
20145;BME280;10233;50.814;6.590;2022-08-21T02:56:23;100311.09;;;13.56;100.00
20145;BME280;10233;50.814;6.590;2022-08-21T02:57:24;100317.03;;;13.58;100.00
20145;BME280;10233;50.814;6.590;2022-08-21T02:58:32;100315.38;;;13.57;100.00
20145;BME280;10233;50.814;6.590;2022-08-21T02:59:33;100308.13;;;13.64;100.00
20145;BME280;10233;50.814;6.590;2022-08-21T03:00:34;100314.94;;;13.60;100.00
20145;BME280;10233;50.814;6.590;2022-08-21T03:01:35;100314.72;;;13.62;100.00
20145;BME280;10233;50.814;6.590;2022-08-21T03:02:36;100313.91;;;13.61;100.00
20145;BME280;10233;50.814;6.590;2022-08-21T03:03:39;100312.41;;;13.65;100.00
20145;BME280;10233;50.814;6.590;2022-08-21T03:04:41;100309.75;;;13.65;100.00
20145;BME280;10233;50.814;6.590;2022-08-21T03:05:42;100310.38;;;13.67;100.00
20145;BME280;10233;50.814;6.590;2022-08-21T03:06:43;100309.91;;;13.70;100.00
20145;BME280;10233;50.814;6.590;2022-08-21T03:07:45;100313.56;;;13.76;100.00
20145;BME280;10233;50.814;6.590;2022-08-21T03:08:47;100312.09;;;13.80;100.00
20145;BME280;10233;50.814;6.590;2022-08-21T03:09:48;100314.75;;;13.80;100.00
20145;BME280;10233;50.814;6.590;2022-08-21T03:10:50;100307.56;;;13.80;100.00
20145;BME280;10233;50.814;6.590;2022-08-21T03:11:51;100301.97;;;13.82;100.00
20145;BME280;10233;50.814;6.590;2022-08-21T03:12:52;100300.72;;;13.84;100.00
20145;BME280;10233;50.814;6.590;2022-08-21T03:13:52;100303.31;;;13.91;100.00
20145;BME280;10233;50.814;6.590;2022-08-21T03:14:53;100301.69;;;13.90;100.00
20145;BME280;10233;50.814;6.590;2022-08-21T03:15:54;100301.69;;;13.90;100.00
20145;BME280;10233;50.814;6.590;2022-08-21T03:16:55;100294.03;;;13.93;100.00
20145;BME280;10233;50.814;6.590;2022-08-21T03:17:55;100297.56;;;13.94;100.00
20145;BME280;10233;50.814;6.590;2022-08-21T03:18:56;100301.84;;;13.95;100.00
20145;BME280;10233;50.814;6.590;2022-08-21T03:19:57;100302.84;;;14.00;100.00
20145;BME280;10233;50.814;6.590;2022-08-21T03:20:58;100293.16;;;13.99;100.00
20145;BME280;10233;50.814;6.590;2022-08-21T03:21:59;100295.41;;;14.02;100.00
20145;BME280;10233;50.814;6.590;2022-08-21T03:23:01;100293.44;;;14.09;100.00
20145;BME280;10233;50.814;6.590;2022-08-21T03:24:03;100299.25;;;14.06;100.00
20145;BME280;10233;50.814;6.590;2022-08-21T03:25:05;100294.28;;;14.10;100.00
20145;BME280;10233;50.814;6.590;2022-08-21T03:26:06;100292.44;;;14.10;100.00
20145;BME280;10233;50.814;6.590;2022-08-21T03:27:07;100292.19;;;14.12;100.00
20145;BME280;10233;50.814;6.590;2022-08-21T03:28:11;100293.84;;;14.13;100.00
20145;BME280;10233;50.814;6.590;2022-08-21T03:29:15;100287.88;;;14.11;100.00
20145;BME280;10233;50.814;6.590;2022-08-21T03:30:17;100295.91;;;14.11;100.00
20145;BME280;10233;50.814;6.590;2022-08-21T03:31:17;100292.88;;;14.07;100.00
20145;BME280;10233;50.814;6.590;2022-08-21T03:32:18;100288.41;;;14.01;100.00
20145;BME280;10233;50.814;6.590;2022-08-21T03:33:20;100287.38;;;14.02;100.00
20145;BME280;10233;50.814;6.590;2022-08-21T03:34:21;100293.75;;;14.01;100.00
20145;BME280;10233;50.814;6.590;2022-08-21T03:35:21;100292.94;;;14.01;100.00
20145;BME280;10233;50.814;6.590;2022-08-21T03:36:22;100294.41;;;13.97;100.00
20145;BME280;10233;50.814;6.590;2022-08-21T03:37:23;100297.63;;;14.05;100.00
20145;BME280;10233;50.814;6.590;2022-08-21T03:38:27;100296.59;;;14.06;100.00
20145;BME280;10233;50.814;6.590;2022-08-21T03:39:28;100293.41;;;13.98;100.00
20145;BME280;10233;50.814;6.590;2022-08-21T03:40:28;100293.84;;;13.95;100.00
20145;BME280;10233;50.814;6.590;2022-08-21T03:41:29;100291.00;;;13.90;100.00
20145;BME280;10233;50.814;6.590;2022-08-21T03:42:29;100296.56;;;13.88;100.00
20145;BME280;10233;50.814;6.590;2022-08-21T03:43:31;100290.34;;;13.76;100.00
20145;BME280;10233;50.814;6.590;2022-08-21T03:44:32;100295.06;;;13.74;100.00
20145;BME280;10233;50.814;6.590;2022-08-21T03:45:34;100299.38;;;13.75;100.00
20145;BME280;10233;50.814;6.590;2022-08-21T03:46:35;100296.69;;;13.75;100.00
20145;BME280;10233;50.814;6.590;2022-08-21T03:47:35;100299.22;;;13.70;100.00
20145;BME280;10233;50.814;6.590;2022-08-21T03:48:38;100306.22;;;13.71;100.00
20145;BME280;10233;50.814;6.590;2022-08-21T03:49:39;100310.25;;;13.80;100.00
20145;BME280;10233;50.814;6.590;2022-08-21T03:50:41;100314.75;;;13.80;100.00
20145;BME280;10233;50.814;6.590;2022-08-21T03:51:42;100313.72;;;13.81;100.00
20145;BME280;10233;50.814;6.590;2022-08-21T03:52:42;100306.91;;;13.85;100.00
20145;BME280;10233;50.814;6.590;2022-08-21T03:53:43;100317.53;;;13.91;100.00
20145;BME280;10233;50.814;6.590;2022-08-21T03:54:44;100312.19;;;13.91;100.00
20145;BME280;10233;50.814;6.590;2022-08-21T03:55:46;100307.63;;;13.92;100.00
20145;BME280;10233;50.814;6.590;2022-08-21T03:56:47;100308.03;;;13.95;100.00
20145;BME280;10233;50.814;6.590;2022-08-21T03:57:47;100310.25;;;13.98;100.00
20145;BME280;10233;50.814;6.590;2022-08-21T03:58:48;100317.91;;;13.95;100.00
20145;BME280;10233;50.814;6.590;2022-08-21T03:59:48;100313.97;;;13.97;100.00
20145;BME280;10233;50.814;6.590;2022-08-21T04:00:52;100308.75;;;14.02;100.00
20145;BME280;10233;50.814;6.590;2022-08-21T04:01:58;100314.09;;;14.02;100.00
20145;BME280;10233;50.814;6.590;2022-08-21T04:02:59;100319.03;;;14.05;100.00
20145;BME280;10233;50.814;6.590;2022-08-21T04:04:00;100319.03;;;14.05;100.00
20145;BME280;10233;50.814;6.590;2022-08-21T04:05:01;100321.69;;;14.05;100.00
20145;BME280;10233;50.814;6.590;2022-08-21T04:06:02;100316.34;;;14.05;100.00
20145;BME280;10233;50.814;6.590;2022-08-21T04:07:03;100318.28;;;14.16;100.00
20145;BME280;10233;50.814;6.590;2022-08-21T04:08:05;100322.31;;;14.25;100.00
20145;BME280;10233;50.814;6.590;2022-08-21T04:09:05;100319.31;;;14.33;100.00
20145;BME280;10233;50.814;6.590;2022-08-21T04:10:07;100319.75;;;14.48;100.00
20145;BME280;10233;50.814;6.590;2022-08-21T04:11:08;100325.72;;;14.50;100.00
20145;BME280;10233;50.814;6.590;2022-08-21T04:12:10;100329.66;;;14.48;100.00
20145;BME280;10233;50.814;6.590;2022-08-21T04:13:11;100322.97;;;14.57;100.00
20145;BME280;10233;50.814;6.590;2022-08-21T04:14:12;100327.03;;;14.59;100.00
20145;BME280;10233;50.814;6.590;2022-08-21T04:15:14;100327.84;;;14.60;100.00
20145;BME280;10233;50.814;6.590;2022-08-21T04:16:14;100326.13;;;14.65;100.00
20145;BME280;10233;50.814;6.590;2022-08-21T04:17:15;100328.59;;;14.67;100.00
20145;BME280;10233;50.814;6.590;2022-08-21T04:18:16;100323.16;;;14.73;100.00
20145;BME280;10233;50.814;6.590;2022-08-21T04:19:16;100328.03;;;14.76;100.00
20145;BME280;10233;50.814;6.590;2022-08-21T04:20:18;100327.13;;;14.82;100.00
20145;BME280;10233;50.814;6.590;2022-08-21T04:21:19;100333.34;;;14.94;100.00
20145;BME280;10233;50.814;6.590;2022-08-21T04:22:19;100330.22;;;14.97;100.00
20145;BME280;10233;50.814;6.590;2022-08-21T04:23:20;100328.56;;;14.96;100.00
20145;BME280;10233;50.814;6.590;2022-08-21T04:24:21;100329.66;;;15.07;100.00
20145;BME280;10233;50.814;6.590;2022-08-21T04:25:23;100334.19;;;15.06;100.00
20145;BME280;10233;50.814;6.590;2022-08-21T04:26:26;100332.13;;;15.08;100.00
20145;BME280;10233;50.814;6.590;2022-08-21T04:27:27;100330.84;;;15.11;100.00
20145;BME280;10233;50.814;6.590;2022-08-21T04:28:28;100334.09;;;15.13;100.00
20145;BME280;10233;50.814;6.590;2022-08-21T04:29:28;100342.84;;;15.08;100.00
20145;BME280;10233;50.814;6.590;2022-08-21T04:30:29;100340.38;;;15.07;100.00
20145;BME280;10233;50.814;6.590;2022-08-21T04:31:29;100336.06;;;15.06;100.00
20145;BME280;10233;50.814;6.590;2022-08-21T04:32:30;100341.44;;;15.06;100.00
20145;BME280;10233;50.814;6.590;2022-08-21T04:33:30;100331.38;;;15.01;100.00
20145;BME280;10233;50.814;6.590;2022-08-21T04:34:31;100339.53;;;15.06;100.00
20145;BME280;10233;50.814;6.590;2022-08-21T04:35:31;100337.91;;;15.05;100.00
20145;BME280;10233;50.814;6.590;2022-08-21T04:36:32;100336.06;;;15.06;100.00
20145;BME280;10233;50.814;6.590;2022-08-21T04:37:33;100337.69;;;15.07;100.00
20145;BME280;10233;50.814;6.590;2022-08-21T04:38:37;100337.69;;;15.07;100.00
20145;BME280;10233;50.814;6.590;2022-08-21T04:39:38;100335.84;;;15.07;100.00
20145;BME280;10233;50.814;6.590;2022-08-21T04:40:38;100334.19;;;15.06;100.00
20145;BME280;10233;50.814;6.590;2022-08-21T04:41:39;100339.53;;;15.06;100.00
20145;BME280;10233;50.814;6.590;2022-08-21T04:42:51;100337.91;;;15.05;100.00
20145;BME280;10233;50.814;6.590;2022-08-21T04:43:52;100343.28;;;15.05;100.00
20145;BME280;10233;50.814;6.590;2022-08-21T04:44:55;100336.06;;;15.06;100.00
20145;BME280;10233;50.814;6.590;2022-08-21T04:45:56;100339.53;;;15.06;100.00
20145;BME280;10233;50.814;6.590;2022-08-21T04:46:57;100342.22;;;15.06;100.00
20145;BME280;10233;50.814;6.590;2022-08-21T04:47:59;100341.78;;;15.09;100.00
20145;BME280;10233;50.814;6.590;2022-08-21T04:49:00;100339.94;;;15.10;100.00
20145;BME280;10233;50.814;6.590;2022-08-21T04:50:01;100346.09;;;15.10;100.00
20145;BME280;10233;50.814;6.590;2022-08-21T04:51:15;100347.72;;;15.11;100.00
20145;BME280;10233;50.814;6.590;2022-08-21T04:52:20;100353.69;;;15.13;100.00
20145;BME280;10233;50.814;6.590;2022-08-21T04:53:27;100344.81;;;15.13;100.00
20145;BME280;10233;50.814;6.590;2022-08-21T04:54:30;100342.13;;;15.13;100.00
20145;BME280;10233;50.814;6.590;2022-08-21T04:55:30;100345.28;;;15.10;100.00
20145;BME280;10233;50.814;6.590;2022-08-21T04:56:39;100347.72;;;15.11;100.00
20145;BME280;10233;50.814;6.590;2022-08-21T04:57:41;100350.16;;;15.13;100.00
20145;BME280;10233;50.814;6.590;2022-08-21T04:58:42;100348.31;;;15.13;100.00
20145;BME280;10233;50.814;6.590;2022-08-21T04:59:46;100340.94;;;15.09;100.00
20145;BME280;10233;50.814;6.590;2022-08-21T05:00:48;100344.22;;;15.11;100.00
20145;BME280;10233;50.814;6.590;2022-08-21T05:01:49;100349.69;;;15.04;100.00
20145;BME280;10233;50.814;6.590;2022-08-21T05:02:53;100343.88;;;15.07;100.00
20145;BME280;10233;50.814;6.590;2022-08-21T05:03:58;100344.91;;;15.06;100.00
20145;BME280;10233;50.814;6.590;2022-08-21T05:05:00;100340.28;;;15.13;100.00
20145;BME280;10233;50.814;6.590;2022-08-21T05:06:03;100343.41;;;15.10;100.00
20145;BME280;10233;50.814;6.590;2022-08-21T05:07:06;100341.91;;;15.14;100.00
20145;BME280;10233;50.814;6.590;2022-08-21T05:08:12;100341.78;;;15.09;100.00
20145;BME280;10233;50.814;6.590;2022-08-21T05:09:16;100337.34;;;15.03;100.00
20145;BME280;10233;50.814;6.590;2022-08-21T05:10:18;100351.44;;;15.10;100.00
20145;BME280;10233;50.814;6.590;2022-08-21T05:11:20;100343.66;;;15.20;100.00
20145;BME280;10233;50.814;6.590;2022-08-21T05:12:22;100344.41;;;15.27;100.00
20145;BME280;10233;50.814;6.590;2022-08-21T05:13:22;100344.63;;;15.26;100.00
20145;BME280;10233;50.814;6.590;2022-08-21T05:14:24;100345.06;;;15.23;100.00
20145;BME280;10233;50.814;6.590;2022-08-21T05:15:26;100341.03;;;15.32;100.00
20145;BME280;10233;50.814;6.590;2022-08-21T05:16:27;100350.34;;;15.29;100.00
20145;BME280;10233;50.814;6.590;2022-08-21T05:17:28;100344.00;;;15.24;100.00
20145;BME280;10233;50.814;6.590;2022-08-21T05:18:29;100344.81;;;15.13;100.00
20145;BME280;10233;50.814;6.590;2022-08-21T05:19:29;100344.47;;;15.09;100.00